Time;durP1;ratioP1;P1;durP2;ratioP2;P2;SDS_P1;SDS_P2;PMS_P1;PMS_P2;Temp;Humidity;BMP_temperature;BMP_pressure;BME280_temperature;BME280_humidity;BME280_pressure;Samples;Min_cycle;Max_cycle;Signal;HPM_P1;HPM_P2
2023/05/26 00:02:08;;;;;;;11.35;3.00;;;8.70;99.90;;;;;;5013913;28;20124;-68
2023/05/26 00:04:33;;;;;;;11.48;3.28;;;8.70;99.90;;;;;;5013817;28;20038;-68
2023/05/26 00:06:59;;;;;;;11.45;3.17;;;8.70;99.90;;;;;;5013503;28;20045;-68
2023/05/26 00:09:25;;;;;;;11.18;2.92;;;8.70;99.90;;;;;;5014281;28;20042;-69
2023/05/26 00:11:51;;;;;;;11.05;2.90;;;8.70;99.90;;;;;;5013746;28;20046;-68
2023/05/26 00:14:17;;;;;;;14.23;3.10;;;8.70;99.90;;;;;;5013608;28;20054;-69
2023/05/26 00:16:43;;;;;;;12.68;3.00;;;8.70;99.90;;;;;;5014255;28;20049;-69
2023/05/26 00:19:09;;;;;;;13.75;3.50;;;8.70;99.90;;;;;;5013921;28;20550;-68
2023/05/26 00:21:39;;;;;;;12.00;2.92;;;8.70;99.90;;;;;;5013452;28;20081;-68
2023/05/26 00:24:05;;;;;;;11.65;2.75;;;8.80;99.90;;;;;;5016617;28;20121;-68
2023/05/26 00:26:31;;;;;;;10.02;3.20;;;8.70;99.90;;;;;;5017300;28;20486;-68
2023/05/26 00:28:56;;;;;;;11.25;3.00;;;8.70;99.90;;;;;;5016424;28;20082;-68
2023/05/26 00:31:22;;;;;;;12.27;2.55;;;8.70;99.90;;;;;;5017557;28;20049;-69
2023/05/26 00:33:48;;;;;;;8.63;2.78;;;8.70;99.90;;;;;;5017592;28;20053;-69
2023/05/26 00:36:14;;;;;;;10.23;2.97;;;8.70;99.90;;;;;;5017893;28;20522;-68
2023/05/26 00:38:39;;;;;;;9.05;2.90;;;8.60;99.90;;;;;;5017634;28;20506;-68
2023/05/26 00:41:05;;;;;;;13.07;3.35;;;8.60;99.90;;;;;;5017048;28;20046;-68
2023/05/26 00:43:31;;;;;;;7.38;2.60;;;8.60;99.90;;;;;;5017424;28;20048;-68
2023/05/26 00:45:56;;;;;;;9.80;3.55;;;8.60;99.90;;;;;;5018046;28;20483;-68
2023/05/26 00:48:22;;;;;;;10.57;2.63;;;8.50;99.90;;;;;;5017721;28;20402;-68
2023/05/26 00:50:48;;;;;;;12.30;3.03;;;8.40;99.90;;;;;;5017185;28;20057;-68
2023/05/26 00:53:14;;;;;;;10.98;3.35;;;8.40;99.90;;;;;;5016829;28;20105;-68
2023/05/26 00:55:41;;;;;;;13.90;3.10;;;8.30;99.90;;;;;;5017046;28;20050;-68
2023/05/26 00:58:07;;;;;;;11.70;3.40;;;8.30;99.90;;;;;;5017518;28;20060;-68
2023/05/26 01:00:33;;;;;;;9.65;2.58;;;8.30;99.90;;;;;;5017015;28;20042;-68
2023/05/26 01:02:59;;;;;;;9.68;3.25;;;8.30;99.90;;;;;;5016841;28;20046;-68
2023/05/26 01:05:25;;;;;;;9.38;2.80;;;8.20;99.90;;;;;;5016291;28;20064;-68
2023/05/26 01:07:51;;;;;;;10.27;2.63;;;8.10;99.90;;;;;;5016825;28;20065;-68
2023/05/26 01:10:17;;;;;;;10.73;2.78;;;8.00;99.90;;;;;;5016730;28;20057;-68
2023/05/26 01:13:12;;;;;;;14.63;3.58;;;7.90;99.90;;;;;;5016737;28;20046;-68
2023/05/26 01:15:50;;;;;;;10.82;2.85;;;7.90;99.90;;;;;;5016790;28;20124;-68
2023/05/26 01:18:28;;;;;;;10.63;2.80;;;7.80;99.90;;;;;;5016095;28;20053;-68
2023/05/26 01:21:06;;;;;;;8.75;2.30;;;7.70;99.90;;;;;;5016693;28;20056;-68
2023/05/26 01:23:37;;;;;;;15.88;3.42;;;7.70;99.90;;;;;;5016568;28;20049;-68
2023/05/26 01:26:12;;;;;;;8.82;3.03;;;7.70;99.90;;;;;;5016578;28;20046;-68
2023/05/26 01:28:41;;;;;;;9.85;2.35;;;7.60;99.90;;;;;;5017083;28;20046;-68
2023/05/26 01:31:07;;;;;;;9.75;2.50;;;7.60;99.90;;;;;;5017246;28;20054;-68
2023/05/26 01:33:35;;;;;;;10.63;2.83;;;7.60;99.90;;;;;;5016258;28;20434;-68
2023/05/26 01:36:01;;;;;;;9.40;2.85;;;7.60;99.90;;;;;;5016810;28;20053;-69
2023/05/26 01:38:27;;;;;;;9.25;3.13;;;7.60;99.90;;;;;;5016487;28;20557;-68
2023/05/26 01:41:24;;;;;;;15.65;3.10;;;7.60;99.90;;;;;;5016746;28;20049;-68
2023/05/26 01:44:03;;;;;;;8.20;2.72;;;7.50;99.90;;;;;;5014552;28;20053;-68
2023/05/26 01:46:50;;;;;;;9.70;2.72;;;7.40;99.90;;;;;;5016140;28;20058;-68
2023/05/26 01:49:22;;;;;;;10.90;2.80;;;7.40;99.90;;;;;;5016673;28;20088;-68
2023/05/26 01:51:51;;;;;;;10.88;2.65;;;7.30;99.90;;;;;;5016591;28;20046;-68
2023/05/26 01:54:19;;;;;;;7.30;2.75;;;7.20;99.90;;;;;;5014851;28;20129;-68
2023/05/26 01:56:46;;;;;;;11.23;3.17;;;7.30;99.90;;;;;;5015947;28;20116;-68
2023/05/26 01:59:12;;;;;;;9.40;3.33;;;7.20;99.90;;;;;;5015913;28;20050;-68
2023/05/26 02:01:38;;;;;;;10.10;3.15;;;7.20;99.90;;;;;;5015978;28;20387;-68
2023/05/26 02:04:03;;;;;;;10.25;3.50;;;7.20;99.90;;;;;;5015962;28;20038;-68
2023/05/26 02:06:29;;;;;;;12.23;3.85;;;7.20;99.90;;;;;;5015737;28;20054;-68
2023/05/26 02:08:55;;;;;;;10.70;2.80;;;7.20;99.90;;;;;;5015649;28;20042;-69
2023/05/26 02:11:21;;;;;;;8.00;2.72;;;7.20;99.90;;;;;;5014702;28;20072;-68
2023/05/26 02:13:47;;;;;;;8.90;2.80;;;7.20;99.90;;;;;;5015532;28;20129;-68
2023/05/26 02:16:13;;;;;;;7.82;2.78;;;7.20;99.90;;;;;;5015256;28;20108;-68
2023/05/26 02:18:39;;;;;;;12.80;2.80;;;7.20;99.90;;;;;;5015511;28;20504;-68
2023/05/26 02:21:05;;;;;;;11.63;2.72;;;7.20;99.90;;;;;;5015436;28;20050;-68
2023/05/26 02:23:31;;;;;;;14.45;3.65;;;7.20;99.90;;;;;;5015341;28;20038;-69
2023/05/26 02:25:57;;;;;;;9.35;2.80;;;7.20;99.90;;;;;;5015970;28;20045;-68
2023/05/26 02:28:22;;;;;;;11.68;3.03;;;7.20;99.90;;;;;;5015371;28;20089;-68
2023/05/26 02:30:48;;;;;;;14.50;3.15;;;7.20;99.90;;;;;;5015320;28;20125;-68
2023/05/26 02:33:14;;;;;;;9.13;2.58;;;7.10;99.90;;;;;;5015507;28;20133;-68
2023/05/26 02:35:40;;;;;;;14.05;3.70;;;7.10;99.90;;;;;;5014536;28;20053;-69
2023/05/26 02:38:06;;;;;;;12.48;2.88;;;7.10;99.90;;;;;;5015242;28;20057;-68
2023/05/26 02:40:31;;;;;;;10.95;3.35;;;7.00;99.90;;;;;;5014024;28;20450;-68
2023/05/26 02:42:57;;;;;;;16.08;2.88;;;7.00;99.90;;;;;;5015802;28;20060;-68
2023/05/26 02:45:23;;;;;;;13.05;2.90;;;7.10;99.90;;;;;;5014472;28;20517;-69
2023/05/26 02:47:48;;;;;;;13.57;3.20;;;7.00;99.90;;;;;;5014994;28;20045;-69
2023/05/26 02:50:14;;;;;;;11.70;2.95;;;7.00;99.90;;;;;;5014921;28;20398;-69
2023/05/26 02:52:40;;;;;;;11.18;2.85;;;7.00;99.90;;;;;;5014918;28;20119;-69
2023/05/26 02:55:08;;;;;;;10.00;2.72;;;7.00;99.90;;;;;;5015088;28;20415;-69
2023/05/26 02:57:34;;;;;;;11.27;2.40;;;6.90;99.90;;;;;;5015630;28;20065;-68
2023/05/26 02:59:59;;;;;;;13.82;3.38;;;7.00;99.90;;;;;;5014832;28;20576;-68
2023/05/26 03:02:25;;;;;;;12.27;3.20;;;6.90;99.90;;;;;;5015320;28;20049;-68
2023/05/26 03:04:52;;;;;;;10.60;3.55;;;6.90;99.90;;;;;;5014920;28;20351;-68
2023/05/26 03:07:17;;;;;;;13.45;2.88;;;6.90;99.90;;;;;;5014648;28;20046;-68
2023/05/26 03:09:43;;;;;;;13.32;3.13;;;6.90;99.90;;;;;;5014649;28;20052;-69
2023/05/26 03:12:12;;;;;;;7.00;2.50;;;6.90;99.90;;;;;;5014500;28;20104;-68
2023/05/26 03:14:37;;;;;;;11.27;4.15;;;6.90;99.90;;;;;;5014147;28;20565;-68
2023/05/26 03:17:03;;;;;;;13.45;3.30;;;6.90;99.90;;;;;;5014426;28;20058;-68
2023/05/26 03:19:29;;;;;;;8.35;2.80;;;6.90;99.90;;;;;;5014538;28;20092;-68
2023/05/26 03:21:55;;;;;;;15.73;3.00;;;6.90;99.90;;;;;;5014298;28;20046;-68
2023/05/26 03:24:21;;;;;;;13.13;3.42;;;6.90;99.90;;;;;;5013459;28;20513;-68
2023/05/26 03:26:47;;;;;;;9.52;2.60;;;6.90;99.90;;;;;;5013957;28;20050;-68
2023/05/26 03:29:12;;;;;;;14.70;3.10;;;6.90;99.90;;;;;;5014167;28;20050;-68
2023/05/26 03:31:38;;;;;;;12.27;2.85;;;6.90;99.90;;;;;;5014183;28;20046;-69
2023/05/26 03:34:04;;;;;;;10.90;3.78;;;7.00;99.90;;;;;;5014112;28;20077;-68
2023/05/26 03:36:29;;;;;;;8.30;2.70;;;6.90;99.90;;;;;;5014161;28;20050;-69
2023/05/26 03:38:55;;;;;;;13.35;3.13;;;7.00;99.90;;;;;;5014544;28;20060;-69
2023/05/26 03:41:21;;;;;;;9.70;2.72;;;7.00;99.90;;;;;;5014613;28;20056;-68
2023/05/26 03:43:47;;;;;;;9.45;2.97;;;7.00;99.90;;;;;;5014384;28;20041;-69
2023/05/26 03:46:13;;;;;;;10.10;3.45;;;7.00;99.90;;;;;;5013611;28;20521;-68
2023/05/26 03:48:39;;;;;;;11.75;3.60;;;7.00;99.90;;;;;;5013850;28;20046;-69
2023/05/26 03:51:05;;;;;;;14.05;2.90;;;7.00;99.90;;;;;;5012828;28;20076;-69
2023/05/26 03:53:30;;;;;;;12.55;2.88;;;7.00;99.90;;;;;;5013900;28;20092;-69
2023/05/26 03:55:56;;;;;;;17.55;3.55;;;7.00;99.90;;;;;;5013651;28;20050;-68
2023/05/26 03:58:22;;;;;;;9.65;2.63;;;7.00;99.90;;;;;;5013061;28;20046;-68
2023/05/26 04:00:48;;;;;;;12.68;2.70;;;7.00;99.90;;;;;;5014107;28;20442;-69
2023/05/26 04:03:14;;;;;;;10.00;2.90;;;7.00;99.90;;;;;;5013760;28;20046;-68
2023/05/26 04:05:40;;;;;;;11.43;3.50;;;6.90;99.90;;;;;;5014299;28;20054;-68
2023/05/26 04:08:05;;;;;;;10.20;2.40;;;6.90;99.90;;;;;;5012626;28;20104;-68
2023/05/26 04:10:31;;;;;;;9.07;2.80;;;6.90;99.90;;;;;;5012488;28;20123;-68
2023/05/26 04:12:57;;;;;;;11.93;3.13;;;6.80;99.90;;;;;;5013703;28;20053;-68
2023/05/26 04:15:22;;;;;;;9.50;2.45;;;6.80;99.90;;;;;;5013013;28;20457;-68
2023/05/26 04:17:48;;;;;;;11.55;2.63;;;6.80;99.90;;;;;;5013078;28;20042;-68
2023/05/26 04:20:15;;;;;;;12.13;3.42;;;6.70;99.90;;;;;;5013725;28;20483;-68
2023/05/26 04:22:41;;;;;;;8.23;2.95;;;6.70;99.90;;;;;;5012380;28;20083;-69
2023/05/26 04:25:07;;;;;;;13.10;3.05;;;6.80;99.90;;;;;;5013316;28;20085;-68
2023/05/26 04:27:35;;;;;;;9.68;2.70;;;6.80;99.90;;;;;;5014140;28;20129;-68
2023/05/26 04:30:02;;;;;;;9.55;2.92;;;6.90;99.90;;;;;;5013587;28;20049;-68
2023/05/26 04:32:28;;;;;;;13.68;2.97;;;6.90;99.90;;;;;;5013587;28;20049;-68
2023/05/26 04:34:55;;;;;;;10.35;2.55;;;6.90;99.90;;;;;;5013540;28;20038;-69
2023/05/26 04:37:20;;;;;;;8.70;2.83;;;6.90;99.90;;;;;;5013597;28;20459;-68
2023/05/26 04:39:46;;;;;;;9.07;2.80;;;7.00;99.90;;;;;;5014112;28;20068;-68
2023/05/26 04:42:12;;;;;;;10.05;3.17;;;7.10;99.90;;;;;;5012401;28;20054;-68
2023/05/26 04:44:38;;;;;;;10.98;2.95;;;7.10;99.90;;;;;;5013269;28;20081;-69
2023/05/26 04:47:08;;;;;;;10.38;2.72;;;7.20;99.90;;;;;;5013460;28;20088;-68
2023/05/26 04:49:35;;;;;;;12.75;3.05;;;7.30;99.90;;;;;;5013728;28;20081;-68
2023/05/26 04:52:01;;;;;;;10.00;3.17;;;7.40;99.90;;;;;;5013074;28;20509;-68
2023/05/26 04:54:27;;;;;;;9.43;3.58;;;7.50;99.90;;;;;;5013460;28;20034;-68
2023/05/26 04:56:53;;;;;;;11.10;3.10;;;7.60;99.90;;;;;;5013654;28;20554;-68
2023/05/26 04:59:21;;;;;;;14.32;3.10;;;7.80;99.90;;;;;;5013404;28;20121;-68
2023/05/26 05:01:47;;;;;;;11.23;3.60;;;7.90;99.90;;;;;;5013519;28;20056;-69
2023/05/26 05:04:14;;;;;;;8.07;2.88;;;8.00;99.90;;;;;;5013975;28;20054;-69
2023/05/26 05:06:40;;;;;;;12.02;4.30;;;8.10;99.90;;;;;;5012584;28;20050;-70
2023/05/26 05:09:05;;;;;;;13.55;3.63;;;8.20;99.90;;;;;;5015101;28;20089;-70
2023/05/26 05:11:31;;;;;;;9.77;3.35;;;8.30;99.90;;;;;;5016826;28;20387;-69
2023/05/26 05:13:57;;;;;;;13.75;3.33;;;8.50;99.90;;;;;;5017157;28;20379;-70
2023/05/26 05:16:23;;;;;;;13.13;3.05;;;8.60;99.90;;;;;;5017021;28;20042;-69
2023/05/26 05:18:49;;;;;;;15.80;3.60;;;8.70;99.90;;;;;;5016695;28;20483;-69
2023/05/26 05:21:14;;;;;;;15.23;4.00;;;8.90;99.90;;;;;;5016908;28;20081;-69
2023/05/26 05:23:40;;;;;;;15.93;3.47;;;9.00;99.90;;;;;;5016424;28;20042;-69
2023/05/26 05:26:06;;;;;;;15.55;3.45;;;9.10;99.90;;;;;;5016217;28;20116;-69
2023/05/26 05:28:32;;;;;;;15.40;3.65;;;9.20;99.90;;;;;;5017119;28;20096;-69
2023/05/26 05:30:57;;;;;;;12.80;3.38;;;9.30;99.90;;;;;;5015533;28;20074;-69
2023/05/26 05:33:23;;;;;;;14.40;4.05;;;9.40;99.90;;;;;;5016410;28;20056;-69
2023/05/26 05:35:48;;;;;;;13.10;3.85;;;9.50;99.90;;;;;;5016322;28;20046;-69
2023/05/26 05:38:14;;;;;;;11.88;3.33;;;9.60;99.90;;;;;;5017172;28;20058;-69
2023/05/26 05:40:40;;;;;;;14.98;3.80;;;9.70;99.90;;;;;;5016593;28;20487;-69
2023/05/26 05:43:06;;;;;;;12.98;3.20;;;9.80;99.90;;;;;;5016190;28;20406;-69
2023/05/26 05:45:31;;;;;;;12.23;2.92;;;9.80;99.90;;;;;;5014918;28;20053;-69
2023/05/26 05:47:57;;;;;;;18.20;3.60;;;9.90;99.90;;;;;;5016921;28;20092;-69
2023/05/26 05:50:23;;;;;;;13.40;3.55;;;10.00;99.90;;;;;;5016052;28;20045;-69
2023/05/26 05:52:49;;;;;;;11.20;3.17;;;10.00;99.90;;;;;;5016035;28;20107;-69
2023/05/26 05:55:15;;;;;;;14.98;3.63;;;10.10;99.90;;;;;;5015997;28;20473;-69
2023/05/26 05:57:41;;;;;;;18.02;3.67;;;10.20;99.90;;;;;;5015654;28;20053;-69
2023/05/26 06:00:11;;;;;;;14.10;3.50;;;10.30;99.90;;;;;;5015938;28;20042;-69
2023/05/26 06:02:37;;;;;;;14.93;3.50;;;10.40;99.90;;;;;;5016700;28;20395;-69
2023/05/26 06:05:03;;;;;;;10.77;3.25;;;10.50;99.90;;;;;;5014590;28;20061;-69
2023/05/26 06:07:29;;;;;;;17.35;3.55;;;10.50;99.90;;;;;;5016320;28;20056;-69
2023/05/26 06:09:56;;;;;;;15.05;3.10;;;10.60;99.90;;;;;;5015789;28;20104;-69
2023/05/26 06:12:23;;;;;;;11.43;2.85;;;10.60;99.90;;;;;;5014696;28;20056;-63
2023/05/26 06:14:48;;;;;;;15.02;3.58;;;10.70;99.90;;;;;;5014391;28;20041;-63
2023/05/26 06:17:14;;;;;;;13.00;3.50;;;10.70;99.90;;;;;;5015867;28;20108;-63
2023/05/26 06:19:40;;;;;;;16.85;3.83;;;10.70;99.90;;;;;;5014174;28;20050;-63
2023/05/26 06:22:05;;;;;;;11.77;3.65;;;10.90;99.90;;;;;;5015134;28;20080;-63
2023/05/26 06:24:31;;;;;;;11.93;4.05;;;11.00;99.90;;;;;;5015363;28;20046;-63
2023/05/26 06:26:57;;;;;;;10.60;3.50;;;11.00;99.90;;;;;;5015400;28;20104;-63
2023/05/26 06:29:22;;;;;;;18.40;3.70;;;11.10;99.90;;;;;;5015191;28;20140;-63
2023/05/26 06:31:48;;;;;;;12.13;3.00;;;11.20;99.90;;;;;;5015623;28;20490;-63
2023/05/26 06:34:14;;;;;;;9.40;3.10;;;11.30;99.90;;;;;;5015512;28;20481;-63
2023/05/26 06:36:39;;;;;;;13.20;3.25;;;11.50;99.90;;;;;;5015191;28;20053;-63
2023/05/26 06:39:06;;;;;;;10.02;3.20;;;11.60;99.90;;;;;;5015678;28;20487;-63
2023/05/26 06:41:32;;;;;;;9.95;2.97;;;11.80;99.90;;;;;;5015053;28;20053;-63
2023/05/26 06:43:57;;;;;;;11.82;3.30;;;11.80;99.90;;;;;;5014931;28;20049;-63
2023/05/26 06:46:24;;;;;;;10.48;3.13;;;11.90;99.90;;;;;;5015257;28;20089;-63
2023/05/26 06:48:49;;;;;;;9.82;2.95;;;12.00;99.90;;;;;;5015594;28;20046;-63
2023/05/26 06:51:15;;;;;;;14.50;3.33;;;12.10;99.90;;;;;;5015202;28;20100;-63
2023/05/26 06:53:41;;;;;;;10.35;2.88;;;12.20;99.90;;;;;;5014914;28;20050;-63
2023/05/26 06:56:06;;;;;;;12.18;3.70;;;12.30;99.90;;;;;;5014573;28;20046;-63
2023/05/26 06:58:32;;;;;;;10.73;3.15;;;12.40;99.90;;;;;;5014792;28;20046;-63
2023/05/26 07:00:59;;;;;;;8.65;2.80;;;12.40;99.90;;;;;;5014698;28;20053;-63
2023/05/26 07:03:29;;;;;;;12.75;3.50;;;12.30;99.90;;;;;;5014679;28;20054;-64
2023/05/26 07:05:55;;;;;;;11.15;2.95;;;12.30;99.90;;;;;;5014677;28;20050;-63
2023/05/26 07:08:21;;;;;;;14.00;4.05;;;12.40;99.90;;;;;;5014048;28;20473;-63
2023/05/26 07:10:47;;;;;;;11.52;3.08;;;12.40;99.90;;;;;;5014406;28;20096;-64
2023/05/26 07:13:14;;;;;;;14.68;3.17;;;12.30;99.90;;;;;;5014345;28;20050;-64
2023/05/26 07:15:40;;;;;;;8.45;2.65;;;12.30;99.90;;;;;;5014904;28;20042;-64
2023/05/26 07:18:05;;;;;;;10.82;3.20;;;12.30;99.90;;;;;;5014390;28;20058;-64
2023/05/26 07:20:31;;;;;;;9.27;3.13;;;12.30;99.90;;;;;;5015107;28;20378;-63
2023/05/26 07:22:57;;;;;;;11.98;3.30;;;12.20;99.90;;;;;;5014773;28;20049;-63
2023/05/26 07:25:22;;;;;;;13.68;3.67;;;12.30;99.90;;;;;;5014282;28;20053;-64
2023/05/26 07:27:48;;;;;;;11.38;3.13;;;12.30;99.90;;;;;;5014266;28;20052;-64
2023/05/26 07:30:14;;;;;;;9.02;2.92;;;12.30;99.90;;;;;;5013101;28;20072;-64
2023/05/26 07:32:40;;;;;;;10.38;3.60;;;12.40;99.90;;;;;;5013987;28;20065;-64
2023/05/26 07:35:06;;;;;;;9.43;2.83;;;12.40;99.90;;;;;;5014421;28;20125;-63
2023/05/26 07:37:31;;;;;;;11.82;3.08;;;12.40;99.90;;;;;;5013926;28;20069;-63
2023/05/26 07:39:57;;;;;;;13.30;3.10;;;12.70;99.90;;;;;;5013993;28;20394;-63
2023/05/26 07:42:23;;;;;;;10.13;3.35;;;13.00;99.90;;;;;;5014527;28;20096;-63
2023/05/26 07:44:49;;;;;;;10.95;3.33;;;13.40;99.90;;;;;;5013834;28;20050;-63
2023/05/26 07:47:15;;;;;;;11.88;3.38;;;13.60;99.90;;;;;;5014036;28;20042;-63
2023/05/26 07:49:40;;;;;;;14.48;3.10;;;13.70;99.90;;;;;;5014487;28;20046;-63
2023/05/26 07:52:06;;;;;;;9.13;2.60;;;13.70;99.90;;;;;;5014423;28;20076;-63
2023/05/26 07:54:32;;;;;;;11.90;2.72;;;13.70;99.90;;;;;;5013852;28;20048;-63
2023/05/26 07:56:58;;;;;;;9.68;2.30;;;13.60;99.90;;;;;;5013505;28;20056;-63
2023/05/26 07:59:23;;;;;;;11.40;3.00;;;13.70;99.90;;;;;;5013783;28;20053;-63
2023/05/26 08:01:49;;;;;;;11.20;3.47;;;13.80;99.90;;;;;;4981075;28;20104;-63
2023/05/26 08:04:15;;;;;;;12.98;2.72;;;13.80;99.90;;;;;;5014170;28;20045;-62
2023/05/26 08:06:41;;;;;;;12.48;2.97;;;13.80;99.90;;;;;;5013641;28;20103;-62
2023/05/26 08:09:07;;;;;;;10.48;2.70;;;14.00;99.90;;;;;;5013621;28;20067;-62
2023/05/26 08:11:33;;;;;;;12.90;3.08;;;14.20;99.90;;;;;;5014263;28;20108;-63
2023/05/26 08:13:59;;;;;;;11.60;3.13;;;14.40;99.90;;;;;;5013505;28;20135;-62
2023/05/26 08:16:25;;;;;;;10.00;2.63;;;14.70;99.90;;;;;;5014401;28;20054;-63
2023/05/26 08:18:50;;;;;;;11.00;2.60;;;14.80;99.90;;;;;;5013974;28;20038;-62
2023/05/26 08:21:16;;;;;;;8.63;2.67;;;14.90;99.90;;;;;;5013773;28;20046;-62
2023/05/26 08:23:42;;;;;;;11.77;3.40;;;15.00;99.90;;;;;;5013589;28;20042;-62
2023/05/26 08:26:08;;;;;;;8.57;3.13;;;15.20;99.90;;;;;;5013887;28;20084;-62
2023/05/26 08:28:34;;;;;;;10.82;2.88;;;15.30;99.90;;;;;;5013809;28;20513;-62
2023/05/26 08:31:00;;;;;;;8.93;2.92;;;15.40;99.90;;;;;;5013543;28;20050;-62
2023/05/26 08:33:26;;;;;;;7.65;2.80;;;15.50;99.90;;;;;;5013494;28;20137;-62
2023/05/26 08:35:52;;;;;;;11.27;2.67;;;15.60;99.90;;;;;;5013487;28;20081;-62
2023/05/26 08:38:19;;;;;;;13.05;3.17;;;15.70;99.90;;;;;;5011723;28;20576;-62
2023/05/26 08:40:44;;;;;;;9.15;2.67;;;15.80;99.90;;;;;;5013475;28;20058;-62
2023/05/26 08:43:13;;;;;;;9.30;2.55;;;15.80;99.90;;;;;;5013394;28;20061;-62
2023/05/26 08:45:40;;;;;;;10.18;2.55;;;15.70;99.90;;;;;;5017184;28;20479;-62
2023/05/26 08:48:09;;;;;;;11.50;2.60;;;15.70;99.90;;;;;;5017221;28;20121;-62
2023/05/26 08:50:35;;;;;;;10.52;2.88;;;15.90;99.90;;;;;;5017088;28;20129;-62
2023/05/26 08:53:03;;;;;;;8.70;2.40;;;16.00;99.90;;;;;;5017097;28;20068;-62
2023/05/26 08:55:30;;;;;;;9.27;2.30;;;16.10;99.90;;;;;;5016059;28;20049;-62
2023/05/26 08:57:57;;;;;;;8.57;2.60;;;16.20;99.90;;;;;;5017067;28;20130;-62
2023/05/26 09:00:25;;;;;;;8.73;2.60;;;16.30;99.90;;;;;;5016748;28;20045;-63
2023/05/26 09:02:50;;;;;;;7.68;2.63;;;16.40;99.90;;;;;;5015632;28;20533;-62
2023/05/26 09:05:16;;;;;;;12.20;3.55;;;16.50;99.90;;;;;;5016629;28;20081;-63
2023/05/26 09:07:42;;;;;;;10.68;2.58;;;16.60;99.90;;;;;;5016416;28;20089;-63
2023/05/26 09:10:24;;;;;;;9.68;3.13;;;16.70;99.90;;;;;;5016780;28;20057;-63
2023/05/26 09:13:03;;;;;;;8.60;2.90;;;16.90;99.90;;;;;;5017256;28;20054;-64
2023/05/26 09:15:29;;;;;;;7.38;2.78;;;17.00;99.90;;;;;;5016369;28;20049;-63
2023/05/26 09:18:00;;;;;;;8.10;2.92;;;17.10;99.90;;;;;;5015426;28;20179;-63
2023/05/26 09:20:29;;;;;;;9.40;2.63;;;17.20;99.90;;;;;;5016959;28;20056;-64
2023/05/26 09:22:58;;;;;;;9.20;2.42;;;17.30;99.90;;;;;;5016501;28;20502;-64
2023/05/26 09:25:34;;;;;;;7.80;2.85;;;17.40;99.90;;;;;;5016438;28;20427;-65
2023/05/26 09:28:05;;;;;;;10.13;2.60;;;17.40;99.90;;;;;;5016866;28;20049;-64
2023/05/26 09:30:42;;;;;;;8.88;2.85;;;17.50;99.90;;;;;;5015985;28;20060;-64
2023/05/26 09:33:14;;;;;;;7.25;2.03;;;17.40;99.90;;;;;;5015891;28;20532;-65
2023/05/26 09:35:42;;;;;;;9.63;2.22;;;17.40;99.90;;;;;;5016250;28;20038;-65
2023/05/26 09:38:09;;;;;;;10.77;2.80;;;17.10;99.90;;;;;;5016246;28;20056;-63
2023/05/26 09:40:39;;;;;;;11.63;3.05;;;17.00;99.90;;;;;;5016196;28;20057;-64
2023/05/26 09:43:05;;;;;;;7.50;2.45;;;17.00;99.90;;;;;;5015837;28;20446;-63
2023/05/26 09:45:35;;;;;;;6.82;2.72;;;16.90;99.90;;;;;;5016599;28;20133;-63
2023/05/26 09:48:06;;;;;;;8.85;2.35;;;16.80;99.90;;;;;;5016186;28;20398;-63
2023/05/26 09:50:37;;;;;;;7.50;2.13;;;16.80;99.90;;;;;;5015888;28;20509;-63
2023/05/26 09:53:06;;;;;;;7.20;2.58;;;17.00;99.90;;;;;;5016163;28;20045;-63
2023/05/26 09:55:32;;;;;;;8.10;2.35;;;17.30;99.90;;;;;;5014660;28;20042;-63
2023/05/26 09:58:07;;;;;;;8.48;2.40;;;17.40;99.90;;;;;;5015830;28;20081;-63
2023/05/26 10:00:37;;;;;;;9.25;2.58;;;17.70;99.90;;;;;;5016506;28;20057;-63
2023/05/26 10:03:05;;;;;;;6.80;2.53;;;18.10;99.90;;;;;;5016185;28;20046;-63
2023/05/26 10:05:38;;;;;;;8.38;2.33;;;18.30;99.90;;;;;;5016210;28;20042;-63
2023/05/26 10:08:05;;;;;;;7.35;2.30;;;18.50;99.90;;;;;;5016382;28;20049;-63
2023/05/26 10:10:33;;;;;;;6.70;2.40;;;18.50;99.90;;;;;;5016492;28;20410;-63
2023/05/26 10:12:59;;;;;;;9.65;2.35;;;18.50;99.90;;;;;;5015644;28;20045;-64
2023/05/26 10:15:25;;;;;;;7.75;2.50;;;18.50;99.90;;;;;;5015707;28;20120;-63
2023/05/26 10:17:51;;;;;;;6.63;2.25;;;18.60;99.90;;;;;;5015589;28;20466;-63
2023/05/26 10:20:18;;;;;;;8.93;2.30;;;18.60;99.90;;;;;;5015309;28;20042;-64
2023/05/26 10:22:58;;;;;;;8.07;2.40;;;18.60;99.90;;;;;;5016235;28;20116;-63
2023/05/26 10:25:41;;;;;;;7.68;2.22;;;18.80;99.90;;;;;;5016121;28;20103;-63
2023/05/26 10:28:11;;;;;;;7.55;2.10;;;18.70;99.90;;;;;;5015476;28;20133;-63
2023/05/26 10:30:39;;;;;;;5.35;1.92;;;18.80;99.90;;;;;;5015278;28;20088;-64
2023/05/26 10:33:11;;;;;;;7.20;1.77;;;19.00;99.90;;;;;;4998490;28;20046;-63
2023/05/26 10:35:37;;;;;;;7.45;1.80;;;19.10;99.90;;;;;;5016009;28;20439;-63
2023/05/26 10:38:03;;;;;;;5.13;2.10;;;19.00;99.90;;;;;;5015615;28;20383;-63
2023/05/26 10:40:29;;;;;;;7.45;2.58;;;19.00;99.90;;;;;;5015719;28;20056;-63
2023/05/26 10:43:17;;;;;;;7.10;2.10;;;19.20;99.90;;;;;;5015872;28;20526;-63
2023/05/26 10:46:00;;;;;;;7.97;2.28;;;19.40;99.90;;;;;;5015571;28;20050;-63
2023/05/26 10:48:56;;;;;;;7.35;2.25;;;19.50;99.90;;;;;;5015513;28;20095;-63
2023/05/26 10:51:31;;;;;;;7.35;1.95;;;19.60;99.90;;;;;;5015267;28;20479;-63
2023/05/26 10:53:57;;;;;;;8.05;2.20;;;19.70;99.90;;;;;;5014975;28;20042;-63
2023/05/26 10:56:35;;;;;;;7.25;2.10;;;19.90;99.90;;;;;;5015319;28;20045;-63
2023/05/26 10:59:02;;;;;;;8.02;2.20;;;20.00;99.90;;;;;;5014828;28;20049;-63
2023/05/26 11:01:32;;;;;;;7.90;2.20;;;20.00;99.90;;;;;;5015564;28;20360;-63
2023/05/26 11:04:10;;;;;;;4.45;1.63;;;20.00;99.90;;;;;;5015396;28;20072;-63
2023/05/26 11:06:50;;;;;;;9.05;2.25;;;19.90;99.90;;;;;;5015063;28;20542;-64
2023/05/26 11:09:19;;;;;;;8.25;2.25;;;20.10;99.90;;;;;;5015081;28;20365;-65
2023/05/26 11:12:03;;;;;;;7.15;2.13;;;20.40;99.90;;;;;;5014778;28;20041;-64
2023/05/26 11:14:33;;;;;;;5.72;2.10;;;20.60;99.90;;;;;;5014506;28;20045;-64
2023/05/26 11:17:01;;;;;;;6.47;2.20;;;20.50;99.90;;;;;;5014473;28;20054;-64
2023/05/26 11:19:37;;;;;;;7.53;2.70;;;20.40;99.90;;;;;;5015211;28;20425;-64
2023/05/26 11:22:05;;;;;;;6.43;2.20;;;20.40;99.90;;;;;;5014392;28;20048;-64
2023/05/26 11:24:31;;;;;;;6.05;2.08;;;20.40;99.90;;;;;;5014131;28;20121;-64
2023/05/26 11:27:01;;;;;;;7.47;1.90;;;20.60;99.90;;;;;;5014200;28;20054;-64
2023/05/26 11:29:29;;;;;;;6.20;2.00;;;20.70;99.90;;;;;;5014264;28;20052;-63
2023/05/26 11:31:55;;;;;;;6.53;2.17;;;20.80;99.90;;;;;;5014257;28;20053;-64
2023/05/26 11:34:24;;;;;;;7.00;2.10;;;20.70;99.90;;;;;;5014738;28;20084;-65
2023/05/26 11:36:53;;;;;;;4.47;2.25;;;20.60;99.90;;;;;;5014403;28;20070;-64
2023/05/26 11:39:20;;;;;;;6.22;2.15;;;20.60;99.90;;;;;;5014558;28;20058;-64
2023/05/26 11:41:46;;;;;;;5.93;1.95;;;20.70;99.90;;;;;;5014052;28;20180;-64
2023/05/26 11:44:12;;;;;;;9.07;2.47;;;20.80;99.90;;;;;;5013801;28;20042;-64
2023/05/26 11:46:40;;;;;;;7.88;2.28;;;20.90;99.90;;;;;;5013922;28;20053;-65
2023/05/26 11:49:16;;;;;;;7.32;2.15;;;20.80;99.90;;;;;;5014261;28;20053;-64
2023/05/26 11:51:51;;;;;;;7.03;2.13;;;21.00;99.90;;;;;;4996415;28;20120;-63
2023/05/26 11:54:18;;;;;;;4.95;2.08;;;21.10;99.90;;;;;;5014044;28;20049;-63
2023/05/26 11:56:45;;;;;;;6.78;2.45;;;21.30;99.90;;;;;;5014338;28;20378;-63
2023/05/26 11:59:19;;;;;;;9.35;2.58;;;21.40;99.90;;;;;;5013704;28;20506;-63
2023/05/26 12:01:45;;;;;;;10.23;3.05;;;21.40;99.90;;;;;;5012438;28;20050;-63
2023/05/26 12:04:11;;;;;;;6.13;1.80;;;21.40;99.90;;;;;;5013690;28;20049;-63
2023/05/26 12:06:42;;;;;;;8.35;1.98;;;21.50;99.90;;;;;;5014535;28;20046;-63
2023/05/26 12:09:20;;;;;;;157.90;21.42;;;21.60;99.90;;;;;;5013669;28;20052;-64
2023/05/26 12:11:47;;;;;;;68.57;11.40;;;21.70;99.90;;;;;;5014112;28;20050;-63
2023/05/26 12:14:14;;;;;;;10.45;2.80;;;21.70;99.90;;;;;;5013627;28;20054;-63
2023/05/26 12:16:48;;;;;;;53.90;7.65;;;21.80;99.90;;;;;;5013427;28;20050;-63
2023/05/26 12:19:17;;;;;;;9.38;2.65;;;21.70;99.90;;;;;;5015959;28;20058;-63
2023/05/26 12:21:48;;;;;;;8.52;2.22;;;21.70;99.90;;;;;;5017642;28;20085;-63
2023/05/26 12:24:28;;;;;;;7.82;2.85;;;21.60;99.90;;;;;;5018381;28;20046;-63
2023/05/26 12:26:54;;;;;;;7.65;2.35;;;21.70;99.90;;;;;;5017654;28;20084;-63
2023/05/26 12:29:19;;;;;;;8.10;2.20;;;21.70;99.90;;;;;;5017511;28;20085;-63
2023/05/26 12:31:50;;;;;;;8.68;2.65;;;21.80;99.90;;;;;;5017520;28;20052;-63
2023/05/26 12:34:28;;;;;;;9.32;2.55;;;21.90;99.90;;;;;;5017199;28;20046;-64
2023/05/26 12:36:53;;;;;;;6.43;2.30;;;21.90;99.90;;;;;;5017480;28;20050;-63
2023/05/26 12:39:19;;;;;;;8.70;2.38;;;22.00;99.90;;;;;;5017903;28;20123;-63
2023/05/26 12:41:46;;;;;;;7.22;2.28;;;22.10;99.90;;;;;;5017619;28;20491;-63
2023/05/26 12:44:13;;;;;;;5.38;2.25;;;22.10;99.90;;;;;;5017184;28;20048;-67
2023/05/26 12:46:42;;;;;;;7.63;2.35;;;22.30;99.90;;;;;;5017564;28;20112;-63
2023/05/26 12:49:08;;;;;;;7.47;2.50;;;22.30;99.90;;;;;;5017208;28;20403;-64